Time;durP1;ratioP1;P1;durP2;ratioP2;P2;SDS_P1;SDS_P2;PMS_P1;PMS_P2;Temp;Humidity;BMP_temperature;BMP_pressure;BME280_temperature;BME280_humidity;BME280_pressure;Samples;Min_cycle;Max_cycle;Signal;HPM_P1;HPM_P2
2022/07/21 00:01:40;;;;;;;15.88;13.85;;;;;;;;;;5096350;27;20249;-67
2022/07/21 00:04:07;;;;;;;16.13;14.32;;;;;;;;;;5096388;27;20239;-66
2022/07/21 00:06:35;;;;;;;17.67;15.38;;;;;;;;;;5095891;27;20462;-67
2022/07/21 00:09:03;;;;;;;17.80;15.95;;;;;;;;;;5099672;27;20199;-66
2022/07/21 00:11:30;;;;;;;16.75;15.15;;;;;;;;;;5103476;27;20215;-66
2022/07/21 00:13:58;;;;;;;16.80;14.85;;;;;;;;;;5100908;27;20214;-67
2022/07/21 00:16:25;;;;;;;18.77;14.90;;;;;;;;;;5093547;27;20231;-66
2022/07/21 00:18:53;;;;;;;18.15;16.20;;;;;;;;;;5101638;27;20200;-65
2022/07/21 00:21:21;;;;;;;18.42;15.73;;;;;;;;;;5103623;27;20198;-65
2022/07/21 00:23:49;;;;;;;17.13;15.43;;;;;;;;;;5096688;27;20203;-66
2022/07/21 00:26:16;;;;;;;18.35;15.73;;;;;;;;;;5100136;27;20219;-65
2022/07/21 00:28:43;;;;;;;20.10;16.23;;;;;;;;;;5098268;27;20304;-66
2022/07/21 00:31:11;;;;;;;19.30;17.10;;;;;;;;;;5099997;27;20261;-67
2022/07/21 00:33:39;;;;;;;19.17;16.92;;;;;;;;;;5116395;27;20211;-66
2022/07/21 00:36:06;;;;;;;18.90;16.90;;;;;;;;;;5100352;27;20317;-66
2022/07/21 00:38:34;;;;;;;19.15;17.17;;;;;;;;;;5124432;27;21537;-67
2022/07/21 00:41:11;;;;;;;19.35;17.40;;;;;;;;;;5097207;27;20208;-64
2022/07/21 00:43:39;;;;;;;18.70;16.90;;;;;;;;;;5099653;27;20584;-67
2022/07/21 00:46:06;;;;;;;17.40;15.77;;;;;;;;;;5094955;27;20228;-66
2022/07/21 00:48:34;;;;;;;18.40;16.55;;;;;;;;;;5095509;27;20239;-66
2022/07/21 00:51:01;;;;;;;17.13;15.35;;;;;;;;;;5110095;27;20212;-66
2022/07/21 00:53:29;;;;;;;18.08;16.25;;;;;;;;;;5098770;27;20202;-67
2022/07/21 00:55:56;;;;;;;17.88;16.17;;;;;;;;;;5091234;27;20271;-65
2022/07/21 00:58:24;;;;;;;18.35;16.55;;;;;;;;;;5097634;27;20223;-67
2022/07/21 01:00:51;;;;;;;18.95;17.02;;;;;;;;;;5098680;27;20207;-68
2022/07/21 01:03:19;;;;;;;19.33;17.52;;;;;;;;;;5096107;27;20199;-67
2022/07/21 01:05:47;;;;;;;19.27;17.38;;;;;;;;;;5099256;27;20211;-67
2022/07/21 01:08:15;;;;;;;19.38;16.73;;;;;;;;;;5096606;27;20208;-68
2022/07/21 01:10:43;;;;;;;18.08;16.33;;;;;;;;;;5099994;27;20207;-66
2022/07/21 01:13:10;;;;;;;18.38;16.55;;;;;;;;;;5096601;27;20703;-66
2022/07/21 01:15:38;;;;;;;20.02;17.88;;;;;;;;;;5099626;27;20212;-66
2022/07/21 01:18:06;;;;;;;18.75;16.85;;;;;;;;;;5099883;27;20321;-67
2022/07/21 01:20:35;;;;;;;18.40;16.65;;;;;;;;;;5092469;27;20207;-65
2022/07/21 01:23:03;;;;;;;19.15;17.30;;;;;;;;;;5097768;27;20267;-66
2022/07/21 01:25:31;;;;;;;18.48;16.58;;;;;;;;;;5094673;27;20204;-66
2022/07/21 01:27:59;;;;;;;18.33;16.63;;;;;;;;;;5094321;27;20259;-65
2022/07/21 01:30:26;;;;;;;19.00;16.95;;;;;;;;;;5098652;27;20216;-65
2022/07/21 01:32:53;;;;;;;19.77;17.42;;;;;;;;;;5095624;27;20211;-67
2022/07/21 01:35:21;;;;;;;18.63;16.92;;;;;;;;;;5099204;27;20974;-67
2022/07/21 01:37:48;;;;;;;17.90;16.27;;;;;;;;;;5095772;27;20259;-65
2022/07/21 01:43:03;;;;;;;18.05;15.93;;;;;;;;;;5112767;27;20222;-64
2022/07/21 01:45:38;;;;;;;16.13;14.63;;;;;;;;;;5098681;27;20211;-66
2022/07/21 01:48:05;;;;;;;16.13;14.52;;;;;;;;;;5099600;27;20530;-66
2022/07/21 01:50:33;;;;;;;14.98;13.48;;;;;;;;;;5101446;27;20207;-66
2022/07/21 01:53:00;;;;;;;13.20;12.00;;;;;;;;;;5094556;27;20608;-67
2022/07/21 01:55:29;;;;;;;14.75;12.57;;;;;;;;;;5095608;27;20211;-67
2022/07/21 01:57:56;;;;;;;14.70;13.20;;;;;;;;;;5095313;27;20597;-66
2022/07/21 02:00:24;;;;;;;13.40;12.10;;;;;;;;;;5096490;27;20250;-63
2022/07/21 02:02:51;;;;;;;12.73;11.45;;;;;;;;;;5097336;27;20866;-65
2022/07/21 02:05:18;;;;;;;13.23;11.90;;;;;;;;;;5099162;27;20203;-68
2022/07/21 02:07:46;;;;;;;13.07;11.77;;;;;;;;;;5097902;27;20235;-65
2022/07/21 02:10:13;;;;;;;14.85;12.45;;;;;;;;;;5093031;27;20259;-64
2022/07/21 02:12:41;;;;;;;12.43;11.23;;;;;;;;;;5097253;27;20212;-65
2022/07/21 02:15:08;;;;;;;13.77;11.52;;;;;;;;;;5096455;27;20696;-65
2022/07/21 02:17:36;;;;;;;12.90;11.60;;;;;;;;;;5115010;27;20227;-65
2022/07/21 02:20:03;;;;;;;12.85;11.70;;;;;;;;;;5102839;27;21137;-66
2022/07/21 02:22:31;;;;;;;13.32;12.13;;;;;;;;;;5103853;27;20200;-65
2022/07/21 02:24:58;;;;;;;15.40;11.73;;;;;;;;;;5097438;27;20207;-65
2022/07/21 02:27:26;;;;;;;12.60;11.32;;;;;;;;;;5100500;27;20253;-66
2022/07/21 02:29:54;;;;;;;11.75;10.65;;;;;;;;;;5114228;27;20203;-65
2022/07/21 02:32:21;;;;;;;13.98;12.52;;;;;;;;;;5096572;27;20207;-65
2022/07/21 02:34:50;;;;;;;13.38;11.95;;;;;;;;;;5097494;27;20199;-66
2022/07/21 02:37:18;;;;;;;13.95;11.82;;;;;;;;;;5094560;27;20230;-66
2022/07/21 02:39:48;;;;;;;12.15;10.85;;;;;;;;;;5099063;28;20529;-66
2022/07/21 02:42:15;;;;;;;12.95;11.68;;;;;;;;;;5097576;27;21065;-65
2022/07/21 02:44:43;;;;;;;12.18;10.98;;;;;;;;;;5117693;27;20207;-66
2022/07/21 02:47:11;;;;;;;12.15;11.05;;;;;;;;;;5093682;27;20251;-66
2022/07/21 02:49:39;;;;;;;12.10;10.85;;;;;;;;;;5095430;27;20212;-66
2022/07/21 02:52:10;;;;;;;12.02;10.93;;;;;;;;;;5100634;27;20233;-64
2022/07/21 02:54:37;;;;;;;12.02;10.57;;;;;;;;;;5096371;28;20207;-64
2022/07/21 02:57:05;;;;;;;12.10;11.00;;;;;;;;;;5098316;27;20219;-67
2022/07/21 02:59:40;;;;;;;11.77;10.75;;;;;;;;;;5101654;27;20294;-64
2022/07/21 03:02:07;;;;;;;11.45;10.35;;;;;;;;;;5101535;27;20864;-64
2022/07/21 03:04:35;;;;;;;11.57;10.52;;;;;;;;;;5099139;27;20295;-66
2022/07/21 03:07:03;;;;;;;11.32;10.23;;;;;;;;;;5100178;27;20223;-64
2022/07/21 03:09:31;;;;;;;11.23;10.18;;;;;;;;;;5110329;27;20235;-66
2022/07/21 03:11:59;;;;;;;11.88;10.65;;;;;;;;;;5095337;27;20203;-66
2022/07/21 03:14:26;;;;;;;11.13;10.10;;;;;;;;;;5106568;27;20697;-66
2022/07/21 03:16:54;;;;;;;10.85;9.85;;;;;;;;;;5097943;27;20915;-66
2022/07/21 03:19:21;;;;;;;10.93;9.93;;;;;;;;;;5101590;27;20195;-66
2022/07/21 03:21:49;;;;;;;13.90;11.05;;;;;;;;;;5099701;27;20207;-66
2022/07/21 03:24:16;;;;;;;12.50;11.30;;;;;;;;;;5095344;27;20199;-64
2022/07/21 03:26:43;;;;;;;11.68;10.60;;;;;;;;;;5088177;27;20223;-64
2022/07/21 03:29:11;;;;;;;11.80;10.32;;;;;;;;;;5095031;27;20663;-66
2022/07/21 03:31:39;;;;;;;12.68;11.35;;;;;;;;;;5111893;27;20381;-64
2022/07/21 03:34:06;;;;;;;12.20;10.93;;;;;;;;;;5116906;27;20708;-66
2022/07/21 03:36:34;;;;;;;13.48;12.07;;;;;;;;;;5099102;27;20308;-66
2022/07/21 03:39:01;;;;;;;12.18;10.93;;;;;;;;;;5095956;27;20237;-66
2022/07/21 03:41:29;;;;;;;13.25;11.85;;;;;;;;;;5096932;27;20264;-65
2022/07/21 03:43:56;;;;;;;11.88;10.80;;;;;;;;;;5098539;27;20590;-64
2022/07/21 03:46:24;;;;;;;12.57;11.40;;;;;;;;;;5101386;27;20242;-66
2022/07/21 03:48:51;;;;;;;12.80;11.57;;;;;;;;;;5097974;27;20203;-66
2022/07/21 03:51:20;;;;;;;12.35;11.25;;;;;;;;;;5103336;27;20219;-66
2022/07/21 03:53:47;;;;;;;13.23;11.90;;;;;;;;;;5097390;27;20696;-66
2022/07/21 03:56:15;;;;;;;12.70;11.40;;;;;;;;;;5102761;27;20250;-66
2022/07/21 03:58:42;;;;;;;12.88;11.68;;;;;;;;;;5104035;27;20236;-65
2022/07/21 04:01:10;;;;;;;13.68;12.38;;;;;;;;;;5097745;27;20192;-65
2022/07/21 04:03:37;;;;;;;13.95;12.65;;;;;;;;;;5101825;27;20300;-65
2022/07/21 04:06:10;;;;;;;14.15;12.57;;;;;;;;;;5101342;27;20224;-65
2022/07/21 04:08:37;;;;;;;14.00;12.73;;;;;;;;;;5115193;27;20226;-65
2022/07/21 04:11:09;;;;;;;13.57;12.32;;;;;;;;;;5101185;27;20214;-64
2022/07/21 04:13:36;;;;;;;13.52;12.23;;;;;;;;;;5102552;27;20211;-64
2022/07/21 04:16:03;;;;;;;13.85;12.52;;;;;;;;;;5133787;27;20227;-65
2022/07/21 04:18:31;;;;;;;13.80;12.45;;;;;;;;;;5098691;27;20227;-66
2022/07/21 04:20:58;;;;;;;15.23;13.63;;;;;;;;;;5102927;27;20204;-66
2022/07/21 04:23:26;;;;;;;15.80;14.13;;;;;;;;;;5097242;27;20602;-65
2022/07/21 04:25:53;;;;;;;15.13;13.65;;;;;;;;;;5113289;27;20230;-65
2022/07/21 04:28:21;;;;;;;15.98;14.48;;;;;;;;;;5095670;27;20200;-65
2022/07/21 04:30:49;;;;;;;16.67;14.75;;;;;;;;;;5098654;27;20286;-65
2022/07/21 04:33:16;;;;;;;17.52;15.80;;;;;;;;;;5102477;27;20738;-65
2022/07/21 04:35:43;;;;;;;18.42;16.55;;;;;;;;;;5094526;27;20894;-65
2022/07/21 04:38:12;;;;;;;18.35;16.45;;;;;;;;;;5090476;27;20232;-65
2022/07/21 04:40:40;;;;;;;18.33;16.40;;;;;;;;;;5098386;27;20290;-65
2022/07/21 04:43:07;;;;;;;17.92;16.02;;;;;;;;;;5110391;27;20581;-64
2022/07/21 04:45:35;;;;;;;19.10;17.30;;;;;;;;;;5102175;27;20212;-65
2022/07/21 04:48:03;;;;;;;18.38;16.58;;;;;;;;;;5107443;27;20207;-64
2022/07/21 04:50:32;;;;;;;19.75;15.55;;;;;;;;;;5104869;27;20220;-63
2022/07/21 04:52:59;;;;;;;20.65;16.30;;;;;;;;;;5111158;27;20568;-65
2022/07/21 04:55:27;;;;;;;16.88;15.25;;;;;;;;;;5105325;27;20284;-65
2022/07/21 04:57:54;;;;;;;18.23;16.38;;;;;;;;;;5110412;27;20223;-66
2022/07/21 05:00:24;;;;;;;16.92;15.30;;;;;;;;;;5109830;27;20677;-64
2022/07/21 05:02:51;;;;;;;17.17;15.48;;;;;;;;;;5107945;27;20195;-65
2022/07/21 05:05:19;;;;;;;16.13;14.55;;;;;;;;;;5134704;27;20196;-65
2022/07/21 05:07:47;;;;;;;15.77;14.05;;;;;;;;;;5102993;28;20226;-65
2022/07/21 05:10:16;;;;;;;16.30;14.65;;;;;;;;;;5132666;27;20977;-65
2022/07/21 05:12:43;;;;;;;18.00;14.82;;;;;;;;;;5109653;27;20200;-65
2022/07/21 05:15:11;;;;;;;15.90;14.27;;;;;;;;;;5106226;27;20195;-65
2022/07/21 05:17:40;;;;;;;16.50;14.23;;;;;;;;;;5106852;27;20235;-65
2022/07/21 05:20:08;;;;;;;15.10;13.55;;;;;;;;;;5104710;27;20206;-65
2022/07/21 05:22:35;;;;;;;15.38;13.52;;;;;;;;;;5096229;27;20207;-65
2022/07/21 05:25:03;;;;;;;17.30;13.40;;;;;;;;;;5104520;27;20199;-65
2022/07/21 05:27:31;;;;;;;15.05;13.35;;;;;;;;;;5088180;27;20626;-65
2022/07/21 05:29:58;;;;;;;15.30;13.43;;;;;;;;;;5094684;27;20215;-65
2022/07/21 05:32:26;;;;;;;14.57;13.18;;;;;;;;;;5093819;27;20207;-65
2022/07/21 05:34:54;;;;;;;14.00;12.60;;;;;;;;;;5092546;27;20219;-65
2022/07/21 05:37:21;;;;;;;13.13;11.82;;;;;;;;;;5107870;27;20229;-63
2022/07/21 05:39:49;;;;;;;14.30;11.68;;;;;;;;;;5103886;27;20203;-65
2022/07/21 05:42:17;;;;;;;11.98;10.88;;;;;;;;;;5097276;27;20229;-65
2022/07/21 05:44:45;;;;;;;10.90;9.90;;;;;;;;;;5100107;27;20245;-65
2022/07/21 05:47:12;;;;;;;10.32;9.32;;;;;;;;;;5099640;27;20223;-65
2022/07/21 05:49:40;;;;;;;9.50;8.52;;;;;;;;;;5102146;27;20291;-65
2022/07/21 05:52:07;;;;;;;9.80;8.27;;;;;;;;;;5106857;27;20640;-65
2022/07/21 05:54:35;;;;;;;10.38;8.98;;;;;;;;;;5105864;27;20577;-65
2022/07/21 05:57:04;;;;;;;9.05;8.10;;;;;;;;;;5117433;27;20248;-65
2022/07/21 05:59:32;;;;;;;8.95;7.70;;;;;;;;;;5099836;27;20234;-65
2022/07/21 06:02:01;;;;;;;9.50;8.57;;;;;;;;;;5116735;27;20242;-65
2022/07/21 06:04:29;;;;;;;9.30;8.48;;;;;;;;;;5107213;27;20207;-65
2022/07/21 06:06:57;;;;;;;10.20;9.15;;;;;;;;;;5104166;27;20318;-65
2022/07/21 06:09:24;;;;;;;8.70;7.80;;;;;;;;;;5098008;27;20203;-67
2022/07/21 06:11:52;;;;;;;10.48;8.35;;;;;;;;;;5121088;27;20204;-67
2022/07/21 06:14:20;;;;;;;10.10;7.88;;;;;;;;;;5109039;27;20208;-66
2022/07/21 06:16:47;;;;;;;9.07;7.43;;;;;;;;;;5107185;27;20569;-65
2022/07/21 06:19:16;;;;;;;8.18;7.15;;;;;;;;;;5118014;27;20230;-66
2022/07/21 06:21:43;;;;;;;11.10;7.90;;;;;;;;;;5108346;27;20287;-66
2022/07/21 06:24:13;;;;;;;8.70;7.90;;;;;;;;;;5099503;27;20669;-66
2022/07/21 06:26:41;;;;;;;10.38;8.30;;;;;;;;;;5103115;27;20737;-66
2022/07/21 06:29:08;;;;;;;8.73;7.93;;;;;;;;;;5105049;28;20235;-64
2022/07/21 06:31:37;;;;;;;9.50;8.50;;;;;;;;;;5102510;28;20287;-66
2022/07/21 06:34:05;;;;;;;9.18;8.23;;;;;;;;;;5097116;27;20215;-66
2022/07/21 06:36:32;;;;;;;10.32;9.00;;;;;;;;;;5090089;28;20793;-66
2022/07/21 06:39:00;;;;;;;9.40;8.50;;;;;;;;;;5102541;27;20227;-66
2022/07/21 06:41:27;;;;;;;9.02;8.18;;;;;;;;;;5103496;27;20256;-66
2022/07/21 06:43:55;;;;;;;9.93;8.95;;;;;;;;;;5102851;27;20264;-66
2022/07/21 06:46:23;;;;;;;8.85;8.02;;;;;;;;;;5117197;27;20235;-67
2022/07/21 06:48:51;;;;;;;9.15;7.93;;;;;;;;;;5094481;27;20215;-66
2022/07/21 06:51:19;;;;;;;9.45;8.45;;;;;;;;;;5101216;27;20287;-65
2022/07/21 06:53:46;;;;;;;8.85;8.02;;;;;;;;;;5102664;28;20267;-66
2022/07/21 06:56:14;;;;;;;11.93;8.52;;;;;;;;;;5098813;28;20292;-66
2022/07/21 06:58:41;;;;;;;9.10;8.20;;;;;;;;;;5118150;27;20220;-66
2022/07/21 07:01:18;;;;;;;8.98;7.65;;;;;;;;;;5089226;27;20210;-66
2022/07/21 07:03:46;;;;;;;9.75;7.57;;;;;;;;;;5102659;27;20199;-66
2022/07/21 07:06:15;;;;;;;8.13;7.20;;;;;;;;;;5098008;27;20273;-66
2022/07/21 07:08:42;;;;;;;8.75;7.03;;;;;;;;;;5098388;27;20208;-66
2022/07/21 07:11:11;;;;;;;8.32;7.57;;;;;;;;;;5100508;27;20685;-65
2022/07/21 07:13:39;;;;;;;8.18;7.38;;;;;;;;;;5098466;27;20222;-68
2022/07/21 07:16:26;;;;;;;8.05;7.35;;;;;;;;;;5100295;27;20833;-66
2022/07/21 07:18:54;;;;;;;7.63;6.90;;;;;;;;;;5100550;28;20224;-67
2022/07/21 07:21:22;;;;;;;8.02;7.28;;;;;;;;;;5104284;27;20211;-65
2022/07/21 07:23:50;;;;;;;7.38;6.57;;;;;;;;;;5094050;27;20207;-69
2022/07/21 07:26:18;;;;;;;9.93;7.53;;;;;;;;;;5120945;27;20649;-67
2022/07/21 07:28:45;;;;;;;7.60;6.90;;;;;;;;;;5082527;27;20290;-68
2022/07/21 07:31:14;;;;;;;7.65;6.93;;;;;;;;;;5084579;27;20706;-68
2022/07/21 07:33:41;;;;;;;7.70;6.93;;;;;;;;;;5099970;27;20204;-66
2022/07/21 07:36:12;;;;;;;10.57;7.25;;;;;;;;;;5084129;27;20239;-66
2022/07/21 07:38:41;;;;;;;7.40;6.80;;;;;;;;;;5102678;27;20231;-66
2022/07/21 07:41:08;;;;;;;10.93;7.75;;;;;;;;;;5088747;27;20627;-67
2022/07/21 07:43:36;;;;;;;7.43;6.68;;;;;;;;;;5097960;27;20203;-65
2022/07/21 07:46:04;;;;;;;7.93;7.07;;;;;;;;;;5123526;27;20246;-66
2022/07/21 07:48:34;;;;;;;7.68;6.97;;;;;;;;;;5098608;27;20295;-65
2022/07/21 07:51:01;;;;;;;8.57;7.07;;;;;;;;;;5101161;27;20218;-66
2022/07/21 07:53:29;;;;;;;8.48;7.57;;;;;;;;;;5096221;27;20842;-66
2022/07/21 07:55:56;;;;;;;8.45;7.63;;;;;;;;;;5104192;27;20227;-66
2022/07/21 07:58:23;;;;;;;8.43;7.60;;;;;;;;;;5106625;27;20239;-66
2022/07/21 08:00:53;;;;;;;7.82;7.03;;;;;;;;;;5104050;27;20272;-67
2022/07/21 08:03:23;;;;;;;7.75;7.00;;;;;;;;;;5102830;27;20230;-66
2022/07/21 08:05:51;;;;;;;11.73;7.63;;;;;;;;;;5105956;27;20223;-68
2022/07/21 08:08:19;;;;;;;8.65;7.20;;;;;;;;;;5120206;27;20196;-67
2022/07/21 08:10:48;;;;;;;8.63;7.43;;;;;;;;;;5120873;27;20294;-67
2022/07/21 08:13:16;;;;;;;8.27;7.53;;;;;;;;;;5098060;27;20210;-67
2022/07/21 08:15:44;;;;;;;8.43;7.63;;;;;;;;;;5095510;27;20208;-67
2022/07/21 08:18:12;;;;;;;8.68;7.78;;;;;;;;;;5099715;27;20299;-65
2022/07/21 08:20:39;;;;;;;8.05;7.07;;;;;;;;;;5115797;27;20215;-65
2022/07/21 08:23:07;;;;;;;9.00;8.05;;;;;;;;;;5127394;27;20557;-65
2022/07/21 08:25:36;;;;;;;10.05;7.40;;;;;;;;;;5106791;27;20226;-68
2022/07/21 08:28:13;;;;;;;7.50;6.88;;;;;;;;;;5101513;27;20208;-66
2022/07/21 08:30:40;;;;;;;8.02;7.05;;;;;;;;;;5103642;27;21687;-65
2022/07/21 08:33:08;;;;;;;8.48;7.65;;;;;;;;;;5105448;27;20201;-66
2022/07/21 08:35:35;;;;;;;7.80;7.10;;;;;;;;;;5105489;27;20433;-68
2022/07/21 08:38:04;;;;;;;8.48;7.40;;;;;;;;;;5103011;27;20228;-66
2022/07/21 08:40:33;;;;;;;10.48;7.80;;;;;;;;;;5099058;27;20425;-67
2022/07/21 08:43:01;;;;;;;7.72;6.95;;;;;;;;;;5105300;27;20200;-66
2022/07/21 08:45:30;;;;;;;8.32;7.28;;;;;;;;;;5107737;27;20216;-68
2022/07/21 08:47:59;;;;;;;8.75;7.22;;;;;;;;;;5108411;27;20316;-67
2022/07/21 08:50:27;;;;;;;7.72;6.93;;;;;;;;;;5106506;27;20203;-66
2022/07/21 08:52:55;;;;;;;9.45;7.03;;;;;;;;;;5107020;27;20211;-63
2022/07/21 08:55:33;;;;;;;7.63;6.38;;;;;;;;;;5097100;27;20730;-66
2022/07/21 08:58:03;;;;;;;8.07;7.28;;;;;;;;;;5107083;27;20613;-65
2022/07/21 09:00:34;;;;;;;8.82;7.03;;;;;;;;;;5098811;27;20231;-66
2022/07/21 09:03:21;;;;;;;8.07;7.28;;;;;;;;;;5105365;27;20234;-66
2022/07/21 09:06:08;;;;;;;7.70;6.90;;;;;;;;;;5110083;27;20316;-65
2022/07/21 09:08:39;;;;;;;8.05;7.15;;;;;;;;;;5104153;27;20583;-68
2022/07/21 09:11:21;;;;;;;8.13;6.65;;;;;;;;;;5102658;27;20212;-66
2022/07/21 09:13:53;;;;;;;7.88;7.15;;;;;;;;;;5103683;27;20211;-66
2022/07/21 09:16:40;;;;;;;8.55;7.75;;;;;;;;;;5101302;27;20744;-66
2022/07/21 09:19:15;;;;;;;7.82;7.13;;;;;;;;;;5118472;27;20305;-67
2022/07/21 09:21:43;;;;;;;9.57;7.95;;;;;;;;;;5107332;27;20210;-66
2022/07/21 09:24:18;;;;;;;7.70;7.00;;;;;;;;;;5104276;27;20667;-66
2022/07/21 09:27:01;;;;;;;7.68;6.97;;;;;;;;;;5107411;27;20793;-65
2022/07/21 09:29:34;;;;;;;7.63;6.93;;;;;;;;;;5101830;27;20200;-65
2022/07/21 09:32:16;;;;;;;7.95;7.15;;;;;;;;;;5102779;27;20271;-64
2022/07/21 09:34:45;;;;;;;8.00;7.28;;;;;;;;;;5113323;27;20207;-66
2022/07/21 09:37:12;;;;;;;7.40;6.65;;;;;;;;;;5098579;27;20231;-68
2022/07/21 09:39:47;;;;;;;7.20;6.50;;;;;;;;;;5109191;27;20231;-66
2022/07/21 09:42:15;;;;;;;8.88;6.88;;;;;;;;;;5104961;27;20222;-68
2022/07/21 09:44:44;;;;;;;7.88;6.72;;;;;;;;;;5110278;27;20200;-69
2022/07/21 09:47:15;;;;;;;6.97;6.35;;;;;;;;;;5102454;27;20227;-65
2022/07/21 09:49:43;;;;;;;7.75;7.05;;;;;;;;;;5106060;27;20204;-65
2022/07/21 09:52:32;;;;;;;7.40;6.65;;;;;;;;;;5107924;27;20216;-68
2022/07/21 09:55:04;;;;;;;9.52;7.35;;;;;;;;;;5103945;27;20248;-66
2022/07/21 09:57:32;;;;;;;7.57;6.78;;;;;;;;;;5104171;27;20246;-64
2022/07/21 10:00:07;;;;;;;7.00;6.40;;;;;;;;;;5106281;27;20289;-65
2022/07/21 10:02:45;;;;;;;7.57;6.88;;;;;;;;;;5107936;27;20653;-65
2022/07/21 10:05:13;;;;;;;6.88;5.97;;;;;;;;;;5099389;27;20204;-66
2022/07/21 10:07:42;;;;;;;7.10;6.40;;;;;;;;;;5103690;27;20721;-66
2022/07/21 10:10:13;;;;;;;12.23;6.25;;;;;;;;;;5122456;27;20298;-66
2022/07/21 10:12:41;;;;;;;7.95;6.70;;;;;;;;;;5088894;27;20207;-66
2022/07/21 10:15:10;;;;;;;7.18;5.80;;;;;;;;;;5101527;27;20230;-67
2022/07/21 10:17:38;;;;;;;6.35;5.75;;;;;;;;;;5119660;27;20588;-67
2022/07/21 10:20:16;;;;;;;6.80;6.10;;;;;;;;;;5102072;27;20222;-67
2022/07/21 10:23:03;;;;;;;6.82;6.22;;;;;;;;;;5131434;27;20203;-67
2022/07/21 10:25:30;;;;;;;6.65;6.05;;;;;;;;;;5101580;27;20207;-66
2022/07/21 10:28:17;;;;;;;6.38;5.85;;;;;;;;;;5115047;27;20208;-67
2022/07/21 10:30:45;;;;;;;6.75;5.93;;;;;;;;;;5089504;27;20211;-65
2022/07/21 10:33:14;;;;;;;6.55;5.95;;;;;;;;;;5094885;27;20207;-68
2022/07/21 10:35:45;;;;;;;7.82;6.32;;;;;;;;;;5097982;28;20195;-65
2022/07/21 10:38:29;;;;;;;6.40;5.80;;;;;;;;;;5103368;27;20200;-69
2022/07/21 10:40:57;;;;;;;6.30;5.70;;;;;;;;;;5094719;27;20206;-64
2022/07/21 10:43:28;;;;;;;6.22;5.47;;;;;;;;;;5088618;27;20764;-67
2022/07/21 10:45:56;;;;;;;6.13;5.53;;;;;;;;;;5098744;27;20242;-66
2022/07/21 10:48:44;;;;;;;6.50;5.43;;;;;;;;;;5099758;27;20669;-65
2022/07/21 10:51:14;;;;;;;5.50;5.00;;;;;;;;;;5104428;27;20207;-66
2022/07/21 10:53:42;;;;;;;5.70;5.20;;;;;;;;;;5099215;27;20191;-66
2022/07/21 10:56:25;;;;;;;6.05;4.95;;;;;;;;;;5101861;28;20223;-66
2022/07/21 10:58:53;;;;;;;5.32;4.82;;;;;;;;;;5102605;28;20693;-67
2022/07/21 11:01:24;;;;;;;5.63;5.13;;;;;;;;;;5113712;27;20195;-64
2022/07/21 11:04:09;;;;;;;6.00;5.50;;;;;;;;;;5090262;27;20207;-66
2022/07/21 11:06:37;;;;;;;6.82;5.10;;;;;;;;;;5087702;27;20307;-66
2022/07/21 11:09:05;;;;;;;5.03;4.63;;;;;;;;;;5089612;28;20208;-66
2022/07/21 11:11:34;;;;;;;5.43;4.93;;;;;;;;;;5112301;27;20208;-68
2022/07/21 11:14:17;;;;;;;4.85;4.43;;;;;;;;;;5090718;27;20658;-67
2022/07/21 11:16:54;;;;;;;5.20;4.70;;;;;;;;;;5085468;27;20230;-68
2022/07/21 11:19:53;;;;;;;6.15;4.72;;;;;;;;;;5094528;27;20292;-67
2022/07/21 11:22:25;;;;;;;5.35;4.95;;;;;;;;;;5116620;27;20210;-68
2022/07/21 11:25:00;;;;;;;5.60;4.38;;;;;;;;;;5117105;27;20511;-65
2022/07/21 11:27:30;;;;;;;5.07;4.57;;;;;;;;;;5086196;27;20227;-68
2022/07/21 11:29:59;;;;;;;5.38;4.88;;;;;;;;;;5094384;27;20204;-67
2022/07/21 11:32:27;;;;;;;5.32;4.55;;;;;;;;;;5096632;27;20243;-67
2022/07/21 11:34:59;;;;;;;5.10;4.32;;;;;;;;;;5096464;27;20782;-66
2022/07/21 11:37:46;;;;;;;4.47;3.95;;;;;;;;;;5112913;27;20334;-68
2022/07/21 11:40:13;;;;;;;4.90;4.40;;;;;;;;;;5095197;27;20227;-69
2022/07/21 11:42:41;;;;;;;5.40;4.10;;;;;;;;;;5099593;27;20204;-69
2022/07/21 11:45:10;;;;;;;4.88;4.20;;;;;;;;;;5102209;27;20279;-66
2022/07/21 11:47:40;;;;;;;4.50;4.10;;;;;;;;;;5117488;27;20223;-67
2022/07/21 11:50:16;;;;;;;4.80;4.40;;;;;;;;;;5096172;27;20465;-66
2022/07/21 11:52:44;;;;;;;4.38;4.03;;;;;;;;;;5080151;27;20214;-67
2022/07/21 11:55:12;;;;;;;6.53;4.20;;;;;;;;;;5080921;27;20200;-67
2022/07/21 11:57:43;;;;;;;5.28;4.30;;;;;;;;;;5085723;27;20212;-66
2022/07/21 12:00:11;;;;;;;4.00;3.60;;;;;;;;;;5083365;27;20219;-67
2022/07/21 12:02:42;;;;;;;4.03;3.65;;;;;;;;;;5082534;27;20211;-68
2022/07/21 12:05:10;;;;;;;4.13;3.72;;;;;;;;;;5086977;27;20635;-67
2022/07/21 12:07:45;;;;;;;4.20;3.85;;;;;;;;;;5083349;27;20223;-68
2022/07/21 12:10:16;;;;;;;4.15;3.75;;;;;;;;;;5086166;27;20217;-66
2022/07/21 12:12:44;;;;;;;4.43;4.10;;;;;;;;;;5104732;27;20204;-65
2022/07/21 12:15:12;;;;;;;4.05;3.75;;;;;;;;;;5086969;27;20212;-67
2022/07/21 12:17:48;;;;;;;4.80;3.80;;;;;;;;;;5090767;27;20720;-66
2022/07/21 12:20:24;;;;;;;4.25;3.85;;;;;;;;;;5087053;27;20314;-66
2022/07/21 12:22:52;;;;;;;3.88;3.58;;;;;;;;;;5093744;27;20862;-66
2022/07/21 12:25:31;;;;;;;4.10;3.80;;;;;;;;;;5094267;27;20329;-68
2022/07/21 12:27:59;;;;;;;3.90;3.55;;;;;;;;;;5089566;27;20206;-65
2022/07/21 12:30:41;;;;;;;3.90;3.50;;;;;;;;;;5105034;27;20688;-63
2022/07/21 12:33:13;;;;;;;4.35;3.95;;;;;;;;;;5108904;27;20276;-66
2022/07/21 12:35:42;;;;;;;3.83;3.53;;;;;;;;;;5092435;27;20203;-65
2022/07/21 12:38:18;;;;;;;6.20;4.00;;;;;;;;;;5106506;27;20207;-65
2022/07/21 12:40:47;;;;;;;4.65;3.75;;;;;;;;;;5098647;27;21234;-67
2022/07/21 12:43:35;;;;;;;4.32;3.88;;;;;;;;;;5104141;27;20207;-66
2022/07/21 12:46:09;;;;;;;4.55;3.80;;;;;;;;;;5094514;27;20760;-67
2022/07/21 12:48:37;;;;;;;3.95;3.60;;;;;;;;;;5114525;27;20208;-65
2022/07/21 12:51:20;;;;;;;6.68;3.63;;;;;;;;;;5090690;27;20689;-66
2022/07/21 12:53:52;;;;;;;3.67;3.38;;;;;;;;;;5097811;27;20207;-67
2022/07/21 12:56:23;;;;;;;3.90;3.70;;;;;;;;;;5108786;27;20219;-66
2022/07/21 12:58:52;;;;;;;3.60;3.30;;;;;;;;;;5107668;27;20230;-67
2022/07/21 13:01:21;;;;;;;4.15;3.80;;;;;;;;;;5097479;27;20314;-68
2022/07/21 13:03:50;;;;;;;5.43;3.67;;;;;;;;;;5098271;27;20203;-66
2022/07/21 13:06:18;;;;;;;3.55;3.25;;;;;;;;;;5110388;27;20226;-67
2022/07/21 13:08:46;;;;;;;4.07;3.42;;;;;;;;;;5111345;27;20222;-65
2022/07/21 13:11:18;;;;;;;4.90;3.45;;;;;;;;;;5106009;27;20653;-65
2022/07/21 13:13:49;;;;;;;4.15;3.72;;;;;;;;;;5102365;27;20771;-68
2022/07/21 13:16:18;;;;;;;3.53;3.22;;;;;;;;;;5109475;27;20705;-67
2022/07/21 13:18:45;;;;;;;3.47;3.17;;;;;;;;;;5103514;27;20210;-67
2022/07/21 13:21:13;;;;;;;3.53;3.22;;;;;;;;;;5101562;27;20227;-66
2022/07/21 13:23:41;;;;;;;4.30;3.72;;;;;;;;;;5112536;27;20286;-66
2022/07/21 13:26:08;;;;;;;4.45;3.45;;;;;;;;;;5097163;27;20220;-67
2022/07/21 13:28:36;;;;;;;3.50;3.20;;;;;;;;;;5104878;27;20204;-66
2022/07/21 13:31:06;;;;;;;4.72;3.30;;;;;;;;;;5105203;27;20936;-66
2022/07/21 13:33:34;;;;;;;3.33;3.03;;;;;;;;;;5112347;27;20460;-66
2022/07/21 13:36:02;;;;;;;3.75;3.33;;;;;;;;;;5122904;27;20220;-66
2022/07/21 13:38:29;;;;;;;3.53;2.90;;;;;;;;;;5113098;27;20207;-66
2022/07/21 13:40:57;;;;;;;4.95;3.50;;;;;;;;;;5112808;27;20256;-66
2022/07/21 13:43:44;;;;;;;3.53;3.20;;;;;;;;;;5112141;27;20208;-66
2022/07/21 13:46:13;;;;;;;3.20;3.00;;;;;;;;;;5108327;27;20590;-66
2022/07/21 13:48:41;;;;;;;3.83;3.53;;;;;;;;;;5104863;27;20199;-66
2022/07/21 13:51:15;;;;;;;3.85;3.33;;;;;;;;;;5110578;27;20264;-66
2022/07/21 13:53:43;;;;;;;3.25;2.95;;;;;;;;;;5103635;27;20200;-66
2022/07/21 13:56:11;;;;;;;4.70;3.40;;;;;;;;;;5100849;27;20219;-66
2022/07/21 13:58:39;;;;;;;4.13;3.45;;;;;;;;;;5101748;27;20366;-66
2022/07/21 14:01:07;;;;;;;5.78;3.47;;;;;;;;;;5110183;27;20250;-66
2022/07/21 14:03:36;;;;;;;3.38;3.17;;;;;;;;;;5118461;27;20280;-66
2022/07/21 14:06:04;;;;;;;3.88;3.58;;;;;;;;;;5106061;27;20226;-66
2022/07/21 14:08:31;;;;;;;3.80;3.50;;;;;;;;;;5105711;27;20227;-66
2022/07/21 14:10:59;;;;;;;3.90;3.60;;;;;;;;;;5107650;27;20215;-66
2022/07/21 14:13:27;;;;;;;3.78;3.33;;;;;;;;;;5103375;27;20199;-66
2022/07/21 14:15:54;;;;;;;3.60;3.30;;;;;;;;;;5105363;27;20749;-66
2022/07/21 14:18:22;;;;;;;3.45;3.15;;;;;;;;;;5107734;27;20203;-66
2022/07/21 14:20:51;;;;;;;3.78;3.40;;;;;;;;;;5100688;27;20223;-66
2022/07/21 14:23:22;;;;;;;3.30;3.00;;;;;;;;;;5105193;27;20204;-66
2022/07/21 14:25:50;;;;;;;4.05;3.08;;;;;;;;;;5108585;27;20257;-66
2022/07/21 14:28:18;;;;;;;3.95;3.17;;;;;;;;;;5125479;27;20203;-66
2022/07/21 14:30:46;;;;;;;3.83;3.42;;;;;;;;;;5101765;28;20204;-65
2022/07/21 14:33:13;;;;;;;3.63;3.33;;;;;;;;;;5107075;27;20581;-66
2022/07/21 14:35:41;;;;;;;3.85;3.45;;;;;;;;;;5095026;27;20200;-66
2022/07/21 14:38:10;;;;;;;4.15;3.75;;;;;;;;;;5102888;27;20212;-65
2022/07/21 14:40:37;;;;;;;4.60;3.38;;;;;;;;;;5098007;27;20635;-65
2022/07/21 14:43:05;;;;;;;3.85;3.55;;;;;;;;;;5110738;27;20214;-65
2022/07/21 14:45:33;;;;;;;4.38;3.20;;;;;;;;;;5095936;27;20228;-65
2022/07/21 14:48:01;;;;;;;4.40;3.47;;;;;;;;;;5099578;28;20210;-66
2022/07/21 14:50:29;;;;;;;4.10;3.60;;;;;;;;;;5100493;28;20211;-66